Decoded Metar for KEIK ( in ) (IATA:) | Meteo·Mobile Aviation Weather
aviador You're here:

KEIK Decoded Metar

in
Report Time2018-08-19 13:54:00
UTC Time2018-08-19 14:06:22
Flight Rules vfr VFR
WindCalm
Visibility9999 m
Phenomena:N/A
Clouds:Broken 100 Hf
Expected CloudBase > 400 ft AGL from Temp-Dew spread
Ceiling10,000 ft
Temp13°C
Dew Point12°C (94% RH)
QNH1025 hPa
Raw Report
KEIK 191354Z AUTO 00000KT 10SM BKN100 13/12 A3026 RMK AO2
T01330115=

Extra information for KEIK:More info

Social comments